createdAt,value
2023-05-18T00:02:04.038Z,102104.97
2023-05-18T00:04:33.215Z,102099.84
2023-05-18T00:07:03.290Z,102101.78
2023-05-18T00:09:31.721Z,102095.69
2023-05-18T00:11:59.081Z,102101.16
2023-05-18T00:14:26.429Z,102108.44
2023-05-18T00:16:55.631Z,102103.31
2023-05-18T00:19:24.036Z,102102.47
2023-05-18T00:21:52.504Z,102106.25
2023-05-18T00:24:19.451Z,102106.34
2023-05-18T00:26:47.511Z,102105.59
2023-05-18T00:29:13.865Z,102100.38
2023-05-18T00:31:40.454Z,102105.81
2023-05-18T00:34:08.126Z,102104.97
2023-05-18T00:36:35.337Z,102105.94
2023-05-18T00:39:02.820Z,102106.06
2023-05-18T00:41:29.211Z,102106.19
2023-05-18T00:43:57.305Z,102109.81
2023-05-18T00:46:25.166Z,102103.69
2023-05-18T00:48:52.536Z,102108.22
2023-05-18T00:51:20.467Z,102105.66
2023-05-18T00:53:47.442Z,102103.09
2023-05-18T00:56:15.198Z,102104.06
2023-05-18T00:58:42.467Z,102111.34
2023-05-18T01:01:09.597Z,102116.94
2023-05-18T01:03:38.842Z,102124.31
2023-05-18T01:06:06.668Z,102111.28
2023-05-18T01:08:34.338Z,102111.59
2023-05-18T01:11:29.797Z,102110.94
2023-05-18T01:13:59.631Z,102107.78
2023-05-18T01:16:34.076Z,102120.63
2023-05-18T01:19:08.310Z,102111.19
2023-05-18T01:21:50.259Z,102116.13
2023-05-18T01:24:26.632Z,102114.84
2023-05-18T01:26:57.448Z,102120.63
2023-05-18T01:29:26.963Z,102121.06
2023-05-18T01:31:53.391Z,102125.09
2023-05-18T01:34:19.978Z,102128.00
2023-05-18T01:36:46.624Z,102120.38
2023-05-18T01:39:13.566Z,102126.94
2023-05-18T01:41:49.256Z,102126.38
2023-05-18T01:44:23.392Z,102130.22
2023-05-18T01:46:59.048Z,102122.50
2023-05-18T01:49:45.679Z,102125.53
2023-05-18T01:52:18.596Z,102125.91
2023-05-18T01:54:49.990Z,102126.25
2023-05-18T01:57:18.459Z,102123.78
2023-05-18T01:59:44.998Z,102125.03
2023-05-18T02:02:11.835Z,102127.06
2023-05-18T02:04:38.358Z,102129.97
2023-05-18T02:07:04.742Z,102123.94
2023-05-18T02:09:31.252Z,102123.31
2023-05-18T02:11:57.655Z,102127.16
2023-05-18T02:14:24.041Z,102126.47
2023-05-18T02:16:52.851Z,102125.00
2023-05-18T02:19:20.332Z,102124.31
2023-05-18T02:21:46.849Z,102125.38
2023-05-18T02:24:13.400Z,102129.09
2023-05-18T02:26:39.979Z,102122.16
2023-05-18T02:29:06.661Z,102119.69
2023-05-18T02:31:33.193Z,102118.94
2023-05-18T02:33:59.604Z,102120.88
2023-05-18T02:36:26.040Z,102120.97
2023-05-18T02:38:52.454Z,102120.97
2023-05-18T02:41:18.866Z,102124.59
2023-05-18T02:43:45.487Z,102114.00
2023-05-18T02:46:11.856Z,102121.25
2023-05-18T02:48:38.276Z,102124.03
2023-05-18T02:51:04.860Z,102121.47
2023-05-18T02:53:31.450Z,102126.81
2023-05-18T02:55:57.882Z,102125.09
2023-05-18T02:58:25.644Z,102118.03
2023-05-18T03:00:55.183Z,102114.50
2023-05-18T03:03:23.740Z,102119.75
2023-05-18T03:05:52.871Z,102118.91
2023-05-18T03:08:20.545Z,102122.44
2023-05-18T03:10:47.092Z,102125.94
2023-05-18T03:13:13.666Z,102128.63
2023-05-18T03:15:40.653Z,102132.13
2023-05-18T03:18:07.096Z,102128.53
2023-05-18T03:20:35.081Z,102124.03
2023-05-18T03:23:01.453Z,102130.22
2023-05-18T03:25:27.929Z,102128.31
2023-05-18T03:27:54.429Z,102133.66
2023-05-18T03:30:20.918Z,102127.34
2023-05-18T03:32:47.887Z,102126.38
2023-05-18T03:35:14.924Z,102130.78
2023-05-18T03:37:42.252Z,102135.16
2023-05-18T03:40:11.152Z,102135.16
2023-05-18T03:42:38.866Z,102137.75
2023-05-18T03:45:06.215Z,102137.75
2023-05-18T03:47:32.882Z,102139.44
2023-05-18T03:49:59.453Z,102134.09
2023-05-18T03:52:26.076Z,102137.53
2023-05-18T03:54:52.681Z,102140.13
2023-05-18T03:57:19.101Z,102136.47
2023-05-18T03:59:46.002Z,102140.84
2023-05-18T04:02:13.081Z,102145.25
2023-05-18T04:04:45.907Z,102152.06
2023-05-18T04:07:21.908Z,102150.38
2023-05-18T04:09:49.108Z,102151.22
2023-05-18T04:12:15.571Z,102148.56
2023-05-18T04:14:49.324Z,102151.13
2023-05-18T04:17:22.951Z,102155.72
2023-05-18T04:19:50.087Z,102156.56
2023-05-18T04:22:17.145Z,102158.38
2023-05-18T04:24:45.647Z,102158.38
2023-05-18T04:27:12.365Z,102168.09
2023-05-18T04:29:40.521Z,102165.34
2023-05-18T04:32:07.953Z,102166.19
2023-05-18T04:34:35.930Z,102159.78
2023-05-18T04:37:05.775Z,102164.84
2023-05-18T04:39:34.486Z,102163.66
2023-05-18T04:42:01.909Z,102165.19
2023-05-18T04:44:29.513Z,102164.75
2023-05-18T04:46:56.229Z,102172.47
2023-05-18T04:49:23.144Z,102176.56
2023-05-18T04:51:50.814Z,102176.25
2023-05-18T04:54:17.263Z,102179.56
2023-05-18T04:56:43.691Z,102178.19
2023-05-18T04:59:10.759Z,102177.91
2023-05-18T05:01:37.294Z,102175.78
2023-05-18T05:04:06.192Z,102172.75
2023-05-18T05:06:32.554Z,102178.66
2023-05-18T05:08:58.993Z,102179.19
2023-05-18T05:11:25.646Z,102170.00
2023-05-18T05:13:52.394Z,102176.66
2023-05-18T05:16:18.878Z,102172.78
2023-05-18T05:18:47.192Z,102176.00
2023-05-18T05:21:13.816Z,102180.94
2023-05-18T05:23:41.178Z,102189.50
2023-05-18T05:26:07.532Z,102185.56
2023-05-18T05:28:33.912Z,102188.66
2023-05-18T05:31:00.444Z,102191.03
2023-05-18T05:33:26.911Z,102191.44
2023-05-18T05:35:53.417Z,102186.50
2023-05-18T05:38:19.851Z,102179.88
2023-05-18T05:40:46.346Z,102189.19
2023-05-18T05:43:12.726Z,102187.88
2023-05-18T05:45:39.509Z,102188.41
2023-05-18T05:48:06.216Z,102185.28
2023-05-18T05:50:32.747Z,102189.47
2023-05-18T05:53:00.020Z,102188.16
2023-05-18T05:55:26.463Z,102201.94
2023-05-18T05:57:53.056Z,102199.69
2023-05-18T06:00:20.096Z,102194.84
2023-05-18T06:02:46.568Z,102198.75
2023-05-18T06:05:12.986Z,102195.66
2023-05-18T06:07:39.402Z,102199.59
2023-05-18T06:10:06.326Z,102199.13
2023-05-18T06:12:32.766Z,102194.28
2023-05-18T06:14:59.300Z,102191.03
2023-05-18T06:17:27.854Z,102192.25
2023-05-18T06:19:54.813Z,102209.50
2023-05-18T06:22:21.204Z,102197.31
2023-05-18T06:24:47.586Z,102188.81
2023-05-18T06:27:14.034Z,102192.84
2023-05-18T06:29:40.393Z,102195.91
2023-05-18T06:32:07.411Z,102189.25
2023-05-18T06:34:34.013Z,102199.59
2023-05-18T06:37:00.437Z,102197.44
2023-05-18T06:39:26.921Z,102191.84
2023-05-18T06:41:53.366Z,102196.84
2023-05-18T06:44:19.809Z,102197.50
2023-05-18T06:46:47.693Z,102204.06
2023-05-18T06:49:14.190Z,102208.84
2023-05-18T06:51:41.591Z,102210.06
2023-05-18T06:54:08.493Z,102204.09
2023-05-18T06:56:34.951Z,102205.34
2023-05-18T06:59:01.413Z,102197.38
2023-05-18T07:01:27.909Z,102198.25
2023-05-18T07:03:54.363Z,102193.97
2023-05-18T07:06:20.972Z,102195.19
2023-05-18T07:08:47.917Z,102199.78
2023-05-18T07:11:14.760Z,102201.84
2023-05-18T07:13:41.166Z,102196.00
2023-05-18T07:16:07.621Z,102203.66
2023-05-18T07:18:34.227Z,102200.59
2023-05-18T07:21:00.622Z,102198.38
2023-05-18T07:23:27.109Z,102205.94
2023-05-18T07:25:53.553Z,102201.03
2023-05-18T07:28:20.099Z,102201.38
2023-05-18T07:30:46.556Z,102209.66
2023-05-18T07:33:13.010Z,102203.41
2023-05-18T07:35:39.421Z,102201.66
2023-05-18T07:38:05.799Z,102209.66
2023-05-18T07:40:32.245Z,102206.78
2023-05-18T07:42:58.659Z,102214.66
2023-05-18T07:45:25.118Z,102209.94
2023-05-18T07:47:51.649Z,102216.06
2023-05-18T07:50:18.163Z,102210.63
2023-05-18T07:52:44.550Z,102229.22
2023-05-18T07:55:11.375Z,102221.19
2023-05-18T07:57:38.098Z,102215.88
2023-05-18T08:00:06.565Z,102213.91
2023-05-18T08:02:34.355Z,102217.09
2023-05-18T08:05:01.175Z,102213.75
2023-05-18T08:07:29.939Z,102221.13
2023-05-18T08:09:56.981Z,102211.78
2023-05-18T08:12:24.532Z,102224.56
2023-05-18T08:14:51.212Z,102212.63
2023-05-18T08:17:19.524Z,102209.25
2023-05-18T08:19:47.379Z,102210.63
2023-05-18T08:22:14.765Z,102210.50
2023-05-18T08:24:41.293Z,102226.25
2023-05-18T08:27:09.828Z,102210.91
2023-05-18T08:29:36.235Z,102216.00
2023-05-18T08:32:02.785Z,102213.75
2023-05-18T08:34:30.121Z,102210.47
2023-05-18T08:36:56.625Z,102211.47
2023-05-18T08:39:23.054Z,102216.00
2023-05-18T08:42:11.807Z,102211.59
2023-05-18T08:44:48.058Z,102206.34
2023-05-18T08:47:15.292Z,102211.03
2023-05-18T08:49:45.541Z,102206.47
2023-05-18T08:52:17.973Z,102211.16
2023-05-18T08:54:44.696Z,102198.97
2023-05-18T08:57:11.784Z,102199.94
2023-05-18T08:59:42.140Z,102206.88
2023-05-18T09:02:09.892Z,102195.25
2023-05-18T09:04:38.042Z,102205.75
2023-05-18T09:07:06.662Z,102202.09
2023-05-18T09:09:33.602Z,102194.69
2023-05-18T09:12:00.198Z,102196.41
2023-05-18T09:14:26.869Z,102203.22
2023-05-18T09:16:53.522Z,102197.56
2023-05-18T09:19:20.192Z,102186.34
2023-05-18T09:21:47.232Z,102188.63
2023-05-18T09:24:13.935Z,102185.34
2023-05-18T09:26:40.601Z,102181.41
2023-05-18T09:29:27.268Z,102174.47
2023-05-18T09:31:55.389Z,102174.72
2023-05-18T09:34:21.848Z,102176.59
2023-05-18T09:36:52.772Z,102167.63
2023-05-18T09:39:19.206Z,102164.06
2023-05-18T09:41:45.714Z,102163.06
2023-05-18T09:44:12.703Z,102158.47
2023-05-18T09:46:40.165Z,102153.19
2023-05-18T09:49:07.206Z,102148.63
2023-05-18T09:51:40.056Z,102159.13
2023-05-18T09:54:09.693Z,102153.66
2023-05-18T09:56:37.671Z,102146.38
2023-05-18T09:59:12.176Z,102154.28
2023-05-18T10:01:56.056Z,102149.66
2023-05-18T10:04:22.504Z,102148.22
2023-05-18T10:06:50.178Z,102141.06
2023-05-18T10:09:17.809Z,102145.84
2023-05-18T10:11:44.329Z,102140.69
2023-05-18T10:14:13.655Z,102147.03
2023-05-18T10:16:41.641Z,102144.53
2023-05-18T10:19:11.020Z,102134.69
2023-05-18T10:21:38.778Z,102139.13
2023-05-18T10:24:06.228Z,102142.81
2023-05-18T10:26:37.911Z,102145.59
2023-05-18T10:29:04.651Z,102134.44
2023-05-18T10:31:32.771Z,102143.41
2023-05-18T10:34:00.474Z,102141.88
2023-05-18T10:36:29.892Z,102129.66
2023-05-18T10:38:59.699Z,102132.22
2023-05-18T10:41:34.111Z,102117.84
2023-05-18T10:44:03.929Z,102129.34
2023-05-18T10:46:30.722Z,102133.91
2023-05-18T10:48:58.856Z,102122.78
2023-05-18T10:51:26.232Z,102133.44
2023-05-18T10:53:56.039Z,102118.59
2023-05-18T10:56:23.683Z,102121.50
2023-05-18T10:58:50.242Z,102123.59
2023-05-18T11:01:17.370Z,102111.09
2023-05-18T11:03:44.710Z,102113.34
2023-05-18T11:06:12.815Z,102117.91
2023-05-18T11:08:46.339Z,102108.78
2023-05-18T11:11:12.874Z,102105.22
2023-05-18T11:13:44.636Z,102104.06
2023-05-18T11:16:11.114Z,102112.69
2023-05-18T11:18:43.415Z,102108.53
2023-05-18T11:21:25.193Z,102103.16
2023-05-18T11:24:15.958Z,102105.22
2023-05-18T11:26:44.834Z,102098.28
2023-05-18T11:29:17.362Z,102099.34
2023-05-18T11:31:49.432Z,102095.13
2023-05-18T11:34:45.437Z,102098.91
2023-05-18T11:37:15.797Z,102085.03
2023-05-18T11:39:55.492Z,102085.19
2023-05-18T11:42:33.056Z,102089.50
2023-05-18T11:45:06.562Z,102092.41
2023-05-18T11:47:33.448Z,102087.50
2023-05-18T11:50:00.737Z,102088.03
2023-05-18T11:52:27.425Z,102088.22
2023-05-18T11:54:55.750Z,102089.41
2023-05-18T11:57:34.038Z,102095.72
2023-05-18T12:00:02.963Z,102091.63
2023-05-18T12:02:33.698Z,102091.97
2023-05-18T12:05:02.164Z,102085.56
2023-05-18T12:07:30.366Z,102081.81
2023-05-18T12:10:21.155Z,102082.50
2023-05-18T12:12:52.836Z,102071.47
2023-05-18T12:15:23.866Z,102072.31
2023-05-18T12:17:51.323Z,102072.16
2023-05-18T12:20:21.743Z,102072.66
2023-05-18T12:22:51.884Z,102067.75
2023-05-18T12:25:23.751Z,102067.25
2023-05-18T12:27:52.323Z,102048.75
2023-05-18T12:30:19.759Z,102043.69
2023-05-18T12:32:48.537Z,102051.31
2023-05-18T12:35:15.285Z,102054.69
2023-05-18T12:37:46.386Z,102047.91
2023-05-18T12:40:18.036Z,102044.50
2023-05-18T12:43:00.746Z,102045.69
2023-05-18T12:45:29.436Z,102037.56
2023-05-18T12:47:56.357Z,102038.44
2023-05-18T12:50:27.022Z,102039.28
2023-05-18T12:52:55.802Z,102037.25
2023-05-18T12:55:23.270Z,102036.03
2023-05-18T12:58:04.385Z,102037.38
2023-05-18T13:00:35.300Z,102033.31
2023-05-18T13:03:22.200Z,102017.50
2023-05-18T13:06:06.405Z,102028.53
2023-05-18T13:08:34.879Z,102023.59
2023-05-18T13:11:12.641Z,102025.13
2023-05-18T13:14:04.496Z,102021.19
2023-05-18T13:16:33.162Z,102028.31
2023-05-18T13:19:03.177Z,102012.84
2023-05-18T13:21:30.083Z,102020.84
2023-05-18T13:23:56.891Z,102023.22
2023-05-18T13:26:25.147Z,102012.19
2023-05-18T13:28:54.146Z,102013.03
2023-05-18T13:31:20.947Z,102004.03
2023-05-18T13:33:47.950Z,102010.47
2023-05-18T13:36:14.952Z,102003.00
2023-05-18T13:38:42.490Z,102004.34
2023-05-18T13:41:14.625Z,102008.22
2023-05-18T13:43:42.513Z,102007.03
2023-05-18T13:46:08.971Z,102000.56
2023-05-18T13:48:35.370Z,101987.81
2023-05-18T13:51:01.772Z,101990.53
2023-05-18T13:53:28.415Z,101983.41
2023-05-18T13:55:54.786Z,101986.97
2023-05-18T13:58:21.175Z,101988.31
2023-05-18T14:00:47.730Z,101986.28
2023-05-18T14:03:15.287Z,101981.69
2023-05-18T14:05:42.075Z,101983.38
2023-05-18T14:08:08.515Z,101977.09
2023-05-18T14:10:34.942Z,101976.06
2023-05-18T14:13:01.362Z,101975.06
2023-05-18T14:15:27.784Z,101980.13
2023-05-18T14:17:54.268Z,101966.03
2023-05-18T14:20:20.966Z,101960.38
2023-05-18T14:22:47.344Z,101951.41
2023-05-18T14:25:13.973Z,101960.38
2023-05-18T14:27:40.367Z,101952.75
2023-05-18T14:30:07.484Z,101954.06
2023-05-18T14:32:33.987Z,101950.81
2023-05-18T14:35:00.378Z,101951.28
2023-05-18T14:37:26.820Z,101954.66
2023-05-18T14:39:53.303Z,101950.06
2023-05-18T14:42:19.840Z,101944.84
2023-05-18T14:44:46.789Z,101937.53
2023-05-18T14:47:13.212Z,101946.50
2023-05-18T14:49:39.680Z,101952.63
2023-05-18T14:52:06.259Z,101933.75
2023-05-18T14:54:32.743Z,101952.63
2023-05-18T14:56:59.639Z,101938.00
2023-05-18T14:59:26.018Z,101942.09
2023-05-18T15:01:52.468Z,101942.56
2023-05-18T15:04:21.667Z,101945.94
2023-05-18T15:06:49.433Z,101935.75
2023-05-18T15:09:15.847Z,101944.75
2023-05-18T15:11:42.267Z,101938.47
2023-05-18T15:14:08.644Z,101941.53
2023-05-18T15:16:36.069Z,101932.91
2023-05-18T15:19:04.268Z,101929.69
2023-05-18T15:21:30.861Z,101929.00
2023-05-18T15:23:57.377Z,101931.72
2023-05-18T15:26:23.771Z,101926.78
2023-05-18T15:28:50.184Z,101933.56
2023-05-18T15:31:17.046Z,101934.03
2023-05-18T15:33:43.746Z,101928.91
2023-05-18T15:36:10.476Z,101926.47
2023-05-18T15:38:36.905Z,101930.34
2023-05-18T15:41:03.351Z,101932.81
2023-05-18T15:43:30.900Z,101927.97
2023-05-18T15:45:58.161Z,101921.41
2023-05-18T15:48:24.727Z,101936.44
2023-05-18T15:50:51.142Z,101931.38
2023-05-18T15:53:17.570Z,101915.25
2023-05-18T15:55:44.091Z,101918.84
2023-05-18T15:58:10.598Z,101927.84
2023-05-18T16:00:37.043Z,101921.81
2023-05-18T16:03:03.587Z,101923.91
2023-05-18T16:05:30.093Z,101911.94
2023-05-18T16:07:56.676Z,101910.03
2023-05-18T16:10:23.442Z,101920.22
2023-05-18T16:12:49.845Z,101905.41
2023-05-18T16:15:16.491Z,101899.16
2023-05-18T16:17:42.878Z,101907.88
2023-05-18T16:20:09.724Z,101895.75
2023-05-18T16:22:36.179Z,101898.78
2023-05-18T16:25:02.556Z,101903.53
2023-05-18T16:27:28.941Z,101904.66
2023-05-18T16:29:55.414Z,101905.13
2023-05-18T16:32:21.936Z,101900.34
2023-05-18T16:34:48.309Z,101891.34
2023-05-18T16:37:14.732Z,101897.25
2023-05-18T16:39:41.241Z,101896.84
2023-05-18T16:42:07.731Z,101899.63
2023-05-18T16:44:34.682Z,101900.91
2023-05-18T16:47:01.294Z,101904.53
2023-05-18T16:49:27.667Z,101907.56
2023-05-18T16:51:54.086Z,101900.88
2023-05-18T16:54:20.458Z,101898.63
2023-05-18T16:56:46.854Z,101905.34
2023-05-18T16:59:13.232Z,101895.09
2023-05-18T17:01:39.639Z,101888.97
2023-05-18T17:04:06.173Z,101901.78
2023-05-18T17:06:32.677Z,101901.97
2023-05-18T17:08:59.129Z,101896.69
2023-05-18T17:11:26.864Z,101896.81
2023-05-18T17:13:53.518Z,101894.84
2023-05-18T17:16:21.950Z,101893.88
2023-05-18T17:18:49.028Z,101890.88
2023-05-18T17:21:16.065Z,101887.88
2023-05-18T17:23:42.493Z,101884.47
2023-05-18T17:26:09.062Z,101891.81
2023-05-18T17:28:35.809Z,101881.47
2023-05-18T17:31:02.407Z,101888.19
2023-05-18T17:33:28.901Z,101890.50
2023-05-18T17:35:55.365Z,101889.41
2023-05-18T17:38:22.610Z,101883.31
2023-05-18T17:40:49.165Z,101879.56
2023-05-18T17:43:15.630Z,101876.63
2023-05-18T17:45:42.275Z,101875.63
2023-05-18T17:48:08.996Z,101882.00
2023-05-18T17:50:37.569Z,101877.34
2023-05-18T17:53:04.846Z,101876.56
2023-05-18T17:55:31.549Z,101889.28
2023-05-18T17:57:59.559Z,101887.38
2023-05-18T18:00:26.038Z,101890.81
2023-05-18T18:02:52.431Z,101887.88
2023-05-18T18:05:18.899Z,101884.94
2023-05-18T18:07:45.460Z,101890.00
2023-05-18T18:10:11.901Z,101887.72
2023-05-18T18:12:39.366Z,101888.16
2023-05-18T18:15:06.340Z,101884.78
2023-05-18T18:17:33.470Z,101882.47
2023-05-18T18:19:59.959Z,101885.66
2023-05-18T18:22:26.415Z,101875.13
2023-05-18T18:24:52.928Z,101885.47
2023-05-18T18:27:19.834Z,101888.00
2023-05-18T18:29:46.318Z,101876.47
2023-05-18T18:32:12.814Z,101892.91
2023-05-18T18:34:39.269Z,101896.50
2023-05-18T18:37:05.739Z,101892.75
2023-05-18T18:39:32.167Z,101891.28
2023-05-18T18:41:58.641Z,101895.69
2023-05-18T18:44:25.036Z,101884.06
2023-05-18T18:46:51.679Z,101894.56
2023-05-18T18:49:18.603Z,101900.78
2023-05-18T18:51:46.557Z,101907.81
2023-05-18T18:54:13.050Z,101905.59
2023-05-18T18:56:39.499Z,101909.63
2023-05-18T18:59:06.001Z,101910.88
2023-05-18T19:01:32.474Z,101910.28
2023-05-18T19:03:58.965Z,101924.13
2023-05-18T19:06:26.100Z,101920.88
2023-05-18T19:08:53.275Z,101924.97
2023-05-18T19:11:22.051Z,101921.94
2023-05-18T19:13:48.705Z,101925.78
2023-05-18T19:16:17.474Z,101930.44
2023-05-18T19:18:44.620Z,101929.66
2023-05-18T19:21:11.421Z,101924.22
2023-05-18T19:23:37.884Z,101932.06
2023-05-18T19:26:04.322Z,101933.50
2023-05-18T19:28:30.805Z,101935.66
2023-05-18T19:30:57.318Z,101936.81
2023-05-18T19:33:23.760Z,101943.31
2023-05-18T19:35:51.587Z,101942.34
2023-05-18T19:38:18.090Z,101940.50
2023-05-18T19:40:44.474Z,101946.81
2023-05-18T19:43:11.345Z,101946.50
2023-05-18T19:45:37.881Z,101947.03
2023-05-18T19:48:04.495Z,101949.91
2023-05-18T19:50:31.212Z,101954.00
2023-05-18T19:52:57.640Z,101951.66
2023-05-18T19:55:24.149Z,101963.47
2023-05-18T19:57:50.658Z,101956.38
2023-05-18T20:00:17.302Z,101963.78
2023-05-18T20:02:43.751Z,101972.53
2023-05-18T20:05:12.429Z,101967.94
2023-05-18T20:07:39.166Z,101967.78
2023-05-18T20:10:05.883Z,101968.44
2023-05-18T20:12:32.423Z,101969.94
2023-05-18T20:14:59.056Z,101978.72
2023-05-18T20:17:25.986Z,101976.69
2023-05-18T20:19:53.361Z,101980.91
2023-05-18T20:22:20.211Z,101985.06
2023-05-18T20:24:46.702Z,101987.41
2023-05-18T20:27:14.394Z,101987.09
2023-05-18T20:29:41.459Z,101975.88
2023-05-18T20:32:08.025Z,101979.06
2023-05-18T20:34:34.918Z,101981.41
2023-05-18T20:37:02.368Z,101979.03
2023-05-18T20:39:29.164Z,101983.25
2023-05-18T20:41:57.549Z,101989.13
2023-05-18T20:44:24.932Z,101987.91
2023-05-18T20:46:53.006Z,101991.88
2023-05-18T20:49:24.760Z,101991.38
2023-05-18T20:51:51.281Z,101993.69
2023-05-18T20:54:23.603Z,101989.59
2023-05-18T20:56:51.139Z,101995.50
2023-05-18T20:59:18.189Z,101996.97
2023-05-18T21:01:44.631Z,101997.59
2023-05-18T21:04:13.009Z,101992.66
2023-05-18T21:06:40.833Z,101997.69
2023-05-18T21:09:08.006Z,101991.06
2023-05-18T21:11:34.618Z,101992.38
2023-05-18T21:14:01.107Z,101994.69
2023-05-18T21:16:27.543Z,101992.47
2023-05-18T21:18:53.981Z,101991.94
2023-05-18T21:21:20.933Z,101999.66
2023-05-18T21:23:47.406Z,101996.38
2023-05-18T21:26:13.802Z,102001.25
2023-05-18T21:28:40.284Z,101993.47
2023-05-18T21:31:06.689Z,101987.50
2023-05-18T21:33:34.181Z,101993.22
2023-05-18T21:36:01.605Z,101991.00
2023-05-18T21:38:28.428Z,101999.56
2023-05-18T21:40:56.437Z,102001.03
2023-05-18T21:43:24.007Z,101999.91
2023-05-18T21:45:50.482Z,102001.38
2023-05-18T21:48:16.962Z,101998.38
2023-05-18T21:50:43.445Z,102001.84
2023-05-18T21:53:09.822Z,102005.16
2023-05-18T21:55:36.383Z,102008.28
2023-05-18T21:58:02.791Z,102006.19
2023-05-18T22:00:29.850Z,102004.09
2023-05-18T22:02:56.521Z,102006.41
2023-05-18T22:05:23.065Z,102002.59
2023-05-18T22:07:49.760Z,102002.19
2023-05-18T22:10:17.889Z,102002.78
2023-05-18T22:12:44.635Z,102000.66
2023-05-18T22:15:11.258Z,101994.84
2023-05-18T22:17:38.864Z,101995.44
2023-05-18T22:20:07.027Z,101998.56
2023-05-18T22:22:33.398Z,101990.06
2023-05-18T22:24:59.815Z,101996.91
2023-05-18T22:27:26.420Z,101991.09
2023-05-18T22:29:52.816Z,101997.78
2023-05-18T22:32:19.339Z,101983.88
2023-05-18T22:34:45.929Z,101995.94
2023-05-18T22:37:12.951Z,101992.81
2023-05-18T22:39:39.512Z,101990.56
2023-05-18T22:42:06.154Z,101991.00
2023-05-18T22:44:32.589Z,101989.53
2023-05-18T22:46:59.143Z,101986.28
2023-05-18T22:49:26.144Z,101991.97
2023-05-18T22:51:53.223Z,101987.00
2023-05-18T22:54:19.663Z,101992.69
2023-05-18T22:56:46.140Z,101997.47
2023-05-18T22:59:12.656Z,101989.84
2023-05-18T23:01:39.200Z,102000.03
2023-05-18T23:04:06.303Z,101994.94
2023-05-18T23:06:32.835Z,101998.03
2023-05-18T23:09:00.406Z,101997.47
2023-05-18T23:11:28.378Z,102000.59
2023-05-18T23:13:54.872Z,101993.81
2023-05-18T23:16:22.493Z,101990.69
2023-05-18T23:18:50.443Z,101991.09
2023-05-18T23:21:17.009Z,101990.53
2023-05-18T23:23:45.610Z,101995.31
2023-05-18T23:26:12.639Z,101992.91
2023-05-18T23:28:39.081Z,101999.56
2023-05-18T23:31:05.541Z,101993.59
2023-05-18T23:33:32.335Z,101985.81
2023-05-18T23:36:03.952Z,101985.09
2023-05-18T23:38:35.075Z,101979.25
2023-05-18T23:41:06.111Z,101982.09
2023-05-18T23:43:33.000Z,101983.22
2023-05-18T23:46:00.607Z,101985.31
2023-05-18T23:48:29.615Z,101990.03
2023-05-18T23:51:01.268Z,101985.88
2023-05-18T23:53:31.229Z,101983.47
2023-05-18T23:55:59.425Z,101982.03
2023-05-18T23:58:30.663Z,101979.50
